createdAt,value
2022-08-26T00:00:53.628Z,3.22
2022-08-26T00:03:34.053Z,2.90
2022-08-26T00:06:03.085Z,3.55
2022-08-26T00:08:34.276Z,3.63
2022-08-26T00:11:03.500Z,3.25
2022-08-26T00:13:32.453Z,3.63
2022-08-26T00:16:00.973Z,3.22
2022-08-26T00:18:33.129Z,4.05
2022-08-26T00:21:08.797Z,4.35
2022-08-26T00:23:37.570Z,4.20
2022-08-26T00:26:08.345Z,3.50
2022-08-26T00:28:39.390Z,4.68
2022-08-26T00:31:11.307Z,2.80
2022-08-26T00:33:40.774Z,4.68
2022-08-26T00:36:19.868Z,4.20
2022-08-26T00:38:49.736Z,4.20
2022-08-26T00:41:21.004Z,4.00
2022-08-26T00:43:52.244Z,4.05
2022-08-26T00:46:26.255Z,3.97
2022-08-26T00:49:03.927Z,4.18
2022-08-26T00:51:45.174Z,3.50
2022-08-26T00:56:47.173Z,3.85
2022-08-26T00:59:17.830Z,3.70
2022-08-26T01:01:47.566Z,4.25
2022-08-26T01:04:16.948Z,3.65
2022-08-26T01:06:46.853Z,3.47
2022-08-26T01:09:18.984Z,4.18
2022-08-26T01:11:48.593Z,4.03
2022-08-26T01:14:17.814Z,4.10
2022-08-26T01:16:49.430Z,3.80
2022-08-26T01:19:22.787Z,3.65
2022-08-26T01:22:12.698Z,3.78
2022-08-26T01:24:42.533Z,3.67
2022-08-26T01:27:13.488Z,4.80
2022-08-26T01:29:43.931Z,4.35
2022-08-26T01:32:16.392Z,3.88
2022-08-26T01:34:47.343Z,3.50
2022-08-26T01:37:21.496Z,5.30
2022-08-26T01:39:53.472Z,3.97
2022-08-26T01:42:25.661Z,3.33
2022-08-26T01:45:26.423Z,3.83
2022-08-26T01:47:59.761Z,3.42
2022-08-26T01:50:31.538Z,3.58
2022-08-26T01:53:04.113Z,4.22
2022-08-26T01:55:35.333Z,4.60
2022-08-26T01:58:06.394Z,4.70
2022-08-26T02:00:36.703Z,3.50
2022-08-26T02:03:18.736Z,3.45
2022-08-26T02:05:51.548Z,4.85
2022-08-26T02:08:24.903Z,5.53
2022-08-26T02:10:55.192Z,3.72
2022-08-26T02:13:25.830Z,4.40
2022-08-26T02:15:56.192Z,3.92
2022-08-26T02:18:26.056Z,4.50
2022-08-26T02:20:57.137Z,4.97
2022-08-26T02:23:27.019Z,4.28
2022-08-26T02:26:00.966Z,3.28
2022-08-26T02:28:35.505Z,3.75
2022-08-26T02:33:34.982Z,3.95
2022-08-26T02:36:04.913Z,4.28
2022-08-26T02:38:43.092Z,5.07
2022-08-26T02:41:11.857Z,4.15
2022-08-26T02:43:41.409Z,4.53
2022-08-26T02:46:11.458Z,4.03
2022-08-26T02:48:51.197Z,4.30
2022-08-26T02:51:23.654Z,4.93
2022-08-26T02:53:52.903Z,5.30
2022-08-26T02:56:23.651Z,5.10
2022-08-26T02:58:54.438Z,5.22
2022-08-26T03:01:32.432Z,6.28
2022-08-26T03:04:03.625Z,5.43
2022-08-26T03:06:33.685Z,5.82
2022-08-26T03:09:03.145Z,5.18
2022-08-26T03:11:34.440Z,5.65
2022-08-26T03:14:04.192Z,5.88
2022-08-26T03:16:34.549Z,5.38
2022-08-26T03:19:04.023Z,6.30
2022-08-26T03:21:33.314Z,6.28
2022-08-26T03:24:01.970Z,5.57
2022-08-26T03:26:32.382Z,7.18
2022-08-26T03:29:18.114Z,7.30
2022-08-26T03:31:47.330Z,6.93
2022-08-26T03:34:17.189Z,7.88
2022-08-26T03:36:46.808Z,7.60
2022-08-26T03:39:16.825Z,4.32
2022-08-26T03:41:46.757Z,7.85
2022-08-26T03:44:15.460Z,7.90
2022-08-26T03:46:46.562Z,7.20
2022-08-26T03:49:16.043Z,8.45
2022-08-26T03:51:47.203Z,8.65
2022-08-26T03:54:15.633Z,9.38
2022-08-26T03:56:44.327Z,8.23
2022-08-26T03:59:16.488Z,9.68
2022-08-26T04:01:47.675Z,5.85
2022-08-26T04:04:17.109Z,9.88
2022-08-26T04:06:46.763Z,12.57
2022-08-26T04:09:19.059Z,10.02
2022-08-26T04:11:50.484Z,11.38
2022-08-26T04:14:22.157Z,8.68
2022-08-26T04:16:51.304Z,13.40
2022-08-26T04:19:21.951Z,13.02
2022-08-26T04:21:53.155Z,11.25
2022-08-26T04:24:23.738Z,12.52
2022-08-26T04:26:53.900Z,18.00
2022-08-26T04:29:26.174Z,18.25
2022-08-26T04:31:56.044Z,18.52
2022-08-26T04:34:28.496Z,17.35
2022-08-26T04:36:58.696Z,18.80
2022-08-26T04:39:27.982Z,20.77
2022-08-26T04:41:57.889Z,20.67
2022-08-26T04:44:27.757Z,20.08
2022-08-26T04:46:56.786Z,18.60
2022-08-26T04:49:27.507Z,20.23
2022-08-26T04:51:57.009Z,17.48
2022-08-26T04:54:27.151Z,18.83
2022-08-26T04:56:56.911Z,21.85
2022-08-26T04:59:29.189Z,18.48
2022-08-26T05:02:01.764Z,17.20
2022-08-26T05:04:31.602Z,18.88
2022-08-26T05:07:02.377Z,20.48
2022-08-26T05:09:32.809Z,20.45
2022-08-26T05:12:01.541Z,16.17
2022-08-26T05:14:32.593Z,19.05
2022-08-26T05:17:02.941Z,17.08
2022-08-26T05:19:31.955Z,18.05
2022-08-26T05:22:01.153Z,17.77
2022-08-26T05:24:31.052Z,18.73
2022-08-26T05:27:03.142Z,16.30
2022-08-26T05:29:42.401Z,16.23
2022-08-26T05:32:12.929Z,17.05
2022-08-26T05:34:42.955Z,16.17
2022-08-26T05:37:13.656Z,16.33
2022-08-26T05:39:48.773Z,16.38
2022-08-26T05:42:20.075Z,15.55
2022-08-26T05:44:54.057Z,17.70
2022-08-26T05:47:26.182Z,17.10
2022-08-26T05:49:55.769Z,18.17
2022-08-26T05:52:26.094Z,16.95
2022-08-26T05:54:55.644Z,15.10
2022-08-26T05:57:25.999Z,14.85
2022-08-26T05:59:56.248Z,15.93
2022-08-26T06:02:25.417Z,17.15
2022-08-26T06:04:55.482Z,16.35
2022-08-26T06:07:46.079Z,15.57
2022-08-26T06:10:31.688Z,15.18
2022-08-26T06:13:09.206Z,14.68
2022-08-26T06:15:43.048Z,17.23
2022-08-26T06:18:14.850Z,16.30
2022-08-26T06:20:54.629Z,16.67
2022-08-26T06:23:45.080Z,13.38
2022-08-26T06:26:16.037Z,12.30
2022-08-26T06:28:45.616Z,14.60
2022-08-26T06:31:15.400Z,16.20
2022-08-26T06:33:44.611Z,18.58
2022-08-26T06:36:17.025Z,18.23
2022-08-26T06:38:48.872Z,15.40
2022-08-26T06:41:20.967Z,14.77
2022-08-26T06:43:51.197Z,12.05
2022-08-26T06:46:22.841Z,13.23
2022-08-26T06:48:53.497Z,13.30
2022-08-26T06:51:23.979Z,13.32
2022-08-26T06:53:54.569Z,11.63
2022-08-26T06:56:26.709Z,11.60
2022-08-26T06:58:55.906Z,12.82
2022-08-26T07:01:28.769Z,12.70
2022-08-26T07:03:59.928Z,12.48
2022-08-26T07:06:29.656Z,12.70
2022-08-26T07:09:05.048Z,13.50
2022-08-26T07:11:36.285Z,13.45
2022-08-26T07:14:06.142Z,14.38
2022-08-26T07:16:35.750Z,13.60
2022-08-26T07:19:11.302Z,15.82
2022-08-26T07:21:42.187Z,14.48
2022-08-26T07:24:11.707Z,14.73
2022-08-26T07:26:42.942Z,14.32
2022-08-26T07:29:14.944Z,14.23
2022-08-26T07:31:45.345Z,11.48
2022-08-26T07:34:16.305Z,13.70
2022-08-26T07:36:47.596Z,14.10
2022-08-26T07:39:19.542Z,12.63
2022-08-26T07:41:48.604Z,12.95
2022-08-26T07:44:18.812Z,14.50
2022-08-26T07:46:53.390Z,17.88
2022-08-26T07:49:24.312Z,18.58
2022-08-26T07:51:53.230Z,16.23
2022-08-26T07:54:26.646Z,14.13
2022-08-26T07:56:59.197Z,14.43
2022-08-26T07:59:28.262Z,15.13
2022-08-26T08:02:00.673Z,14.90
2022-08-26T08:04:30.900Z,13.48
2022-08-26T08:06:59.445Z,14.30
2022-08-26T08:09:31.852Z,13.05
2022-08-26T08:12:00.935Z,14.88
2022-08-26T08:14:34.647Z,15.23
2022-08-26T08:17:05.473Z,14.20
2022-08-26T08:19:39.166Z,13.45
2022-08-26T08:22:17.480Z,12.50
2022-08-26T08:24:46.376Z,12.80
2022-08-26T08:27:23.458Z,11.55
2022-08-26T08:29:55.042Z,10.75
2022-08-26T08:32:25.405Z,10.20
2022-08-26T08:34:55.977Z,9.00
2022-08-26T08:37:27.553Z,8.93
2022-08-26T08:39:58.446Z,7.75
2022-08-26T08:42:32.571Z,8.48
2022-08-26T08:45:04.669Z,11.10
2022-08-26T08:47:38.350Z,7.82
2022-08-26T08:50:12.003Z,7.35
2022-08-26T08:52:45.878Z,7.47
2022-08-26T08:55:18.100Z,6.88
2022-08-26T08:57:55.063Z,7.20
2022-08-26T09:00:40.096Z,6.78
2022-08-26T09:03:27.452Z,7.03
2022-08-26T09:05:55.810Z,6.25
2022-08-26T09:08:27.459Z,5.80
2022-08-26T09:10:59.191Z,5.03
2022-08-26T09:13:29.101Z,6.00
2022-08-26T09:16:03.358Z,6.50
2022-08-26T09:18:39.287Z,8.00
2022-08-26T09:21:10.307Z,6.43
2022-08-26T09:23:41.911Z,8.02
2022-08-26T09:26:19.224Z,7.88
2022-08-26T09:28:49.715Z,8.23
2022-08-26T09:31:24.845Z,8.38
2022-08-26T09:34:12.835Z,6.90
2022-08-26T09:36:56.724Z,7.75
2022-08-26T09:39:24.919Z,7.68
2022-08-26T09:42:04.109Z,6.13
2022-08-26T09:44:33.765Z,9.80
2022-08-26T09:47:06.159Z,13.00
2022-08-26T09:49:36.798Z,15.98
2022-08-26T09:52:16.471Z,17.35
2022-08-26T09:54:46.116Z,17.10
2022-08-26T09:57:15.879Z,16.63
2022-08-26T09:59:44.487Z,16.45
2022-08-26T10:02:31.446Z,15.18
2022-08-26T10:05:09.275Z,12.90
2022-08-26T10:07:43.304Z,11.75
2022-08-26T10:10:15.102Z,12.25
2022-08-26T10:12:48.508Z,11.73
2022-08-26T10:15:17.578Z,9.90
2022-08-26T10:17:50.589Z,10.98
2022-08-26T10:20:24.826Z,8.30
2022-08-26T10:23:08.499Z,7.65
2022-08-26T10:28:11.673Z,9.02
2022-08-26T10:30:46.405Z,7.70
2022-08-26T10:33:17.919Z,9.35
2022-08-26T10:35:52.380Z,8.48
2022-08-26T10:38:28.796Z,8.75
2022-08-26T10:41:09.880Z,10.00
2022-08-26T10:43:46.588Z,9.73
2022-08-26T10:46:19.310Z,10.25
2022-08-26T10:48:52.059Z,12.13
2022-08-26T10:51:23.681Z,7.32
2022-08-26T10:53:57.770Z,6.47
2022-08-26T10:59:12.447Z,5.53
2022-08-26T11:01:43.033Z,9.32
2022-08-26T11:04:17.758Z,12.43
2022-08-26T11:06:46.647Z,9.82
2022-08-26T11:09:35.022Z,8.90
2022-08-26T11:12:09.930Z,8.25
2022-08-26T11:14:58.882Z,10.80
2022-08-26T11:17:45.572Z,8.85
2022-08-26T11:20:29.225Z,8.10
2022-08-26T11:23:17.301Z,7.28
2022-08-26T11:25:57.536Z,7.95
2022-08-26T11:28:34.449Z,7.40
2022-08-26T11:31:02.706Z,7.50
2022-08-26T11:33:44.937Z,5.13
2022-08-26T11:36:28.769Z,5.20
2022-08-26T11:41:29.270Z,4.93
2022-08-26T11:43:59.473Z,4.13
2022-08-26T11:46:31.431Z,5.00
2022-08-26T11:49:05.335Z,6.53
2022-08-26T11:51:40.460Z,7.90
2022-08-26T11:54:30.712Z,6.75
2022-08-26T11:57:09.357Z,6.45
2022-08-26T11:59:42.278Z,5.00
2022-08-26T12:02:19.090Z,4.03
2022-08-26T12:04:49.928Z,4.38
2022-08-26T12:07:24.131Z,7.43
2022-08-26T12:09:56.398Z,6.85
2022-08-26T12:12:34.549Z,7.45
2022-08-26T12:15:10.628Z,7.07
2022-08-26T12:17:42.913Z,7.55
2022-08-26T12:20:45.728Z,8.90
2022-08-26T12:23:26.915Z,8.27
2022-08-26T12:26:04.112Z,8.93
2022-08-26T12:28:33.880Z,7.50
2022-08-26T12:31:05.106Z,8.52
2022-08-26T12:33:35.958Z,8.98
2022-08-26T12:36:05.925Z,9.32
2022-08-26T12:38:36.777Z,7.70
2022-08-26T12:41:06.638Z,7.63
2022-08-26T12:43:39.841Z,6.63
2022-08-26T12:46:09.515Z,5.10
2022-08-26T12:48:39.500Z,5.30
2022-08-26T12:51:08.937Z,3.85
2022-08-26T12:53:42.923Z,3.55
2022-08-26T12:56:30.725Z,3.60
2022-08-26T12:59:04.448Z,3.58
2022-08-26T13:04:02.524Z,3.58
2022-08-26T13:06:31.703Z,3.53
2022-08-26T13:09:06.177Z,5.78
2022-08-26T13:11:40.542Z,5.43
2022-08-26T13:14:10.702Z,3.80
2022-08-26T13:16:41.422Z,6.00
2022-08-26T13:19:14.732Z,4.88
2022-08-26T13:21:52.916Z,3.55
2022-08-26T13:24:39.073Z,3.00
2022-08-26T13:27:08.576Z,3.17
2022-08-26T13:29:42.952Z,3.63
2022-08-26T13:32:12.350Z,3.30
2022-08-26T13:34:41.951Z,3.22
2022-08-26T13:37:10.457Z,2.65
2022-08-26T13:39:39.444Z,3.05
2022-08-26T13:42:07.912Z,3.72
2022-08-26T13:44:38.962Z,2.90
2022-08-26T13:47:09.712Z,3.00
2022-08-26T13:49:38.613Z,3.17
2022-08-26T13:52:08.450Z,3.30
2022-08-26T13:54:37.182Z,3.13
2022-08-26T13:57:06.198Z,2.50
2022-08-26T13:59:34.507Z,4.00
2022-08-26T14:02:04.844Z,2.47
2022-08-26T14:04:35.003Z,2.53
2022-08-26T14:07:04.422Z,2.72
2022-08-26T14:09:38.375Z,3.05
2022-08-26T14:12:10.080Z,2.25
2022-08-26T14:14:39.390Z,3.13
2022-08-26T14:17:08.863Z,2.50
2022-08-26T14:19:37.560Z,2.90
2022-08-26T14:22:06.256Z,2.40
2022-08-26T14:24:36.297Z,2.42
2022-08-26T14:27:05.555Z,2.47
2022-08-26T14:29:40.893Z,2.15
2022-08-26T14:32:14.106Z,2.17
2022-08-26T14:34:43.680Z,2.15
2022-08-26T14:37:15.420Z,1.70
2022-08-26T14:39:46.122Z,2.08
2022-08-26T14:42:16.731Z,1.63
2022-08-26T14:44:48.272Z,1.50
2022-08-26T14:47:17.025Z,2.15
2022-08-26T14:49:46.847Z,2.50
2022-08-26T14:52:16.138Z,2.60
2022-08-26T14:54:44.852Z,1.58
2022-08-26T14:57:14.623Z,1.80
2022-08-26T14:59:49.911Z,1.52
2022-08-26T15:02:32.595Z,1.95
2022-08-26T15:05:04.025Z,2.00
2022-08-26T15:07:35.775Z,2.47
2022-08-26T15:10:07.686Z,1.70
2022-08-26T15:12:44.815Z,1.30
2022-08-26T15:15:14.996Z,1.10
2022-08-26T15:17:46.667Z,1.17
2022-08-26T15:20:19.556Z,1.02
2022-08-26T15:22:53.488Z,1.20
2022-08-26T15:25:21.959Z,1.05
2022-08-26T15:27:51.369Z,1.00
2022-08-26T15:30:20.192Z,1.60
2022-08-26T15:33:02.465Z,1.60
2022-08-26T15:35:33.109Z,1.02
2022-08-26T15:38:08.126Z,1.33
2022-08-26T15:40:36.841Z,1.30
2022-08-26T15:43:25.529Z,1.25
2022-08-26T15:46:00.400Z,1.38
2022-08-26T15:48:30.351Z,1.23
2022-08-26T15:51:00.868Z,1.13
2022-08-26T15:53:33.366Z,1.00
2022-08-26T15:56:02.991Z,1.08
2022-08-26T15:58:36.724Z,0.90
2022-08-26T16:01:27.058Z,1.20
2022-08-26T16:03:59.006Z,1.42
2022-08-26T16:06:31.939Z,1.13
2022-08-26T16:09:01.840Z,1.70
2022-08-26T16:11:32.281Z,1.27
2022-08-26T16:14:02.117Z,1.83
2022-08-26T16:16:33.673Z,1.40
2022-08-26T16:19:06.855Z,1.77
2022-08-26T16:21:36.729Z,1.65
2022-08-26T16:24:08.394Z,1.55
2022-08-26T16:26:38.719Z,1.50
2022-08-26T16:29:12.334Z,1.40
2022-08-26T16:31:41.519Z,1.77
2022-08-26T16:34:11.045Z,1.60
2022-08-26T16:36:40.269Z,1.75
2022-08-26T16:39:09.023Z,1.48
2022-08-26T16:41:40.291Z,1.60
2022-08-26T16:44:09.132Z,1.20
2022-08-26T16:46:41.151Z,1.15
2022-08-26T16:49:10.332Z,1.30
2022-08-26T16:51:38.901Z,1.50
2022-08-26T16:54:09.147Z,1.48
2022-08-26T16:56:37.946Z,1.13
2022-08-26T16:59:07.626Z,1.10
2022-08-26T17:01:36.967Z,1.10
2022-08-26T17:04:06.735Z,1.10
2022-08-26T17:06:38.194Z,0.82
2022-08-26T17:09:09.586Z,1.67
2022-08-26T17:11:39.383Z,1.02
2022-08-26T17:14:08.980Z,1.48
2022-08-26T17:16:37.869Z,1.73
2022-08-26T17:19:08.162Z,1.67
2022-08-26T17:21:37.227Z,1.20
2022-08-26T17:24:07.948Z,1.50
2022-08-26T17:26:38.002Z,1.90
2022-08-26T17:29:07.858Z,1.50
2022-08-26T17:31:36.994Z,1.20
2022-08-26T17:34:06.924Z,1.70
2022-08-26T17:36:37.031Z,1.80
2022-08-26T17:39:07.731Z,1.40
2022-08-26T17:41:38.565Z,1.38
2022-08-26T17:44:07.618Z,1.50
2022-08-26T17:46:39.332Z,1.52
2022-08-26T17:49:09.955Z,1.40
2022-08-26T17:51:41.461Z,1.20
2022-08-26T17:54:11.191Z,1.25
2022-08-26T17:56:41.954Z,1.20
2022-08-26T17:59:10.757Z,1.65
2022-08-26T18:01:41.510Z,1.08
2022-08-26T18:04:11.928Z,1.08
2022-08-26T18:06:44.418Z,1.13
2022-08-26T18:09:13.475Z,1.95
2022-08-26T18:11:42.085Z,1.27
2022-08-26T18:14:10.726Z,1.17
2022-08-26T18:16:43.472Z,1.13
2022-08-26T18:19:12.858Z,1.20
2022-08-26T18:21:44.036Z,1.02
2022-08-26T18:24:16.253Z,1.05
2022-08-26T18:26:49.504Z,1.00
2022-08-26T18:29:29.182Z,1.70
2022-08-26T18:37:55.652Z,1.60
2022-08-26T18:40:28.624Z,1.38
2022-08-26T18:43:05.306Z,1.55
2022-08-26T18:45:39.717Z,1.10
2022-08-26T18:48:15.655Z,0.95
2022-08-26T18:50:47.540Z,1.35
2022-08-26T18:53:20.363Z,1.13
2022-08-26T18:55:51.212Z,1.30
2022-08-26T18:58:24.307Z,0.77
2022-08-26T19:00:56.639Z,1.25
2022-08-26T19:03:36.164Z,0.98
2022-08-26T19:06:06.164Z,1.98
2022-08-26T19:08:37.781Z,1.50
2022-08-26T19:11:17.553Z,1.30
2022-08-26T19:14:10.288Z,1.13
2022-08-26T19:16:44.721Z,0.98
2022-08-26T19:19:16.263Z,0.80
2022-08-26T19:21:53.830Z,1.10
2022-08-26T19:24:27.405Z,0.98
2022-08-26T19:27:11.724Z,0.95
2022-08-26T19:29:49.632Z,2.13
2022-08-26T19:32:24.281Z,1.17
2022-08-26T19:34:53.519Z,1.33
2022-08-26T19:37:25.340Z,0.80
2022-08-26T19:39:58.626Z,0.68
2022-08-26T19:42:27.626Z,1.17
2022-08-26T19:45:25.107Z,0.73
2022-08-26T19:47:58.630Z,1.02
2022-08-26T19:50:29.567Z,0.70
2022-08-26T19:53:06.333Z,0.80
2022-08-26T19:55:38.760Z,0.90
2022-08-26T20:00:57.538Z,0.65
2022-08-26T20:03:30.706Z,0.63
2022-08-26T20:06:02.396Z,0.85
2022-08-26T20:08:33.692Z,0.88
2022-08-26T20:11:09.243Z,0.57
2022-08-26T20:16:10.443Z,1.00
2022-08-26T20:21:36.417Z,0.70
2022-08-26T20:24:13.814Z,1.02
2022-08-26T20:26:44.296Z,1.05
2022-08-26T20:29:17.147Z,1.20
2022-08-26T20:31:48.075Z,0.85
2022-08-26T20:34:18.889Z,0.70
2022-08-26T20:36:49.125Z,0.57
2022-08-26T20:41:52.252Z,1.45
2022-08-26T20:44:22.810Z,0.50
2022-08-26T20:46:52.109Z,0.65
2022-08-26T20:49:22.191Z,1.05
2022-08-26T20:51:52.269Z,0.80
2022-08-26T20:54:26.211Z,0.90
2022-08-26T20:56:58.322Z,1.55
2022-08-26T20:59:28.306Z,0.85
2022-08-26T21:01:57.477Z,1.00
2022-08-26T21:04:27.680Z,1.58
2022-08-26T21:06:56.770Z,0.70
2022-08-26T21:09:28.051Z,0.55
2022-08-26T21:11:59.276Z,0.80
2022-08-26T21:14:31.339Z,0.80
2022-08-26T21:16:59.924Z,0.88
2022-08-26T21:19:30.932Z,0.93
2022-08-26T21:22:02.720Z,1.13
2022-08-26T21:24:35.660Z,0.90
2022-08-26T21:27:05.688Z,1.20
2022-08-26T21:29:35.049Z,1.25
2022-08-26T21:32:04.757Z,1.10
2022-08-26T21:34:36.789Z,1.48
2022-08-26T21:37:08.980Z,2.22
2022-08-26T21:39:45.344Z,1.45
2022-08-26T21:42:15.181Z,1.50
2022-08-26T21:44:44.795Z,1.33
2022-08-26T21:47:18.611Z,1.25
2022-08-26T21:49:49.061Z,1.38
2022-08-26T21:52:18.126Z,0.80
2022-08-26T21:54:49.383Z,1.58
2022-08-26T21:57:19.460Z,1.55
2022-08-26T21:59:48.404Z,0.80
2022-08-26T22:02:17.200Z,1.60
2022-08-26T22:04:48.839Z,1.20
2022-08-26T22:07:19.902Z,1.40
2022-08-26T22:09:48.649Z,1.27
2022-08-26T22:12:18.242Z,1.10
2022-08-26T22:14:48.101Z,1.40
2022-08-26T22:17:17.854Z,1.65
2022-08-26T22:19:48.132Z,1.95
2022-08-26T22:22:16.999Z,1.63
2022-08-26T22:24:45.249Z,2.03
2022-08-26T22:27:14.226Z,1.85
2022-08-26T22:29:42.718Z,2.28
2022-08-26T22:32:12.757Z,2.45
2022-08-26T22:34:42.747Z,2.13
2022-08-26T22:37:12.701Z,1.30
2022-08-26T22:39:42.166Z,2.42
2022-08-26T22:42:11.281Z,2.50
2022-08-26T22:44:41.395Z,2.38
2022-08-26T22:47:10.261Z,2.22
2022-08-26T22:49:39.937Z,2.88
2022-08-26T22:52:08.761Z,2.50
2022-08-26T22:54:37.378Z,3.08
2022-08-26T22:57:06.986Z,2.67
2022-08-26T22:59:36.912Z,3.53
2022-08-26T23:02:07.051Z,2.20
2022-08-26T23:04:39.667Z,3.08
2022-08-26T23:07:16.648Z,2.10
2022-08-26T23:09:46.186Z,2.40
2022-08-26T23:12:15.671Z,3.10
2022-08-26T23:14:45.687Z,2.58
2022-08-26T23:17:14.333Z,2.60
2022-08-26T23:19:43.716Z,3.17
2022-08-26T23:22:16.858Z,3.75
2022-08-26T23:24:46.408Z,3.33
2022-08-26T23:27:14.792Z,2.97
2022-08-26T23:29:46.668Z,3.28
2022-08-26T23:32:17.213Z,3.80
2022-08-26T23:34:58.816Z,3.80
2022-08-26T23:37:28.279Z,3.08
2022-08-26T23:40:03.016Z,2.55
2022-08-26T23:42:37.103Z,2.75
2022-08-26T23:45:10.384Z,3.08
2022-08-26T23:47:42.852Z,2.85
2022-08-26T23:50:11.936Z,2.85
2022-08-26T23:53:09.023Z,2.97
2022-08-26T23:55:38.554Z,2.80
2022-08-26T23:58:07.462Z,2.53
